sensor_id;sensor_type;location;lat;lon;timestamp;P1;durP1;ratioP1;P2;durP2;ratioP2
25752;SDS011;13600;50.816;4.416;2023-06-26T00:00:20;9.45;;;5.85;;
25752;SDS011;13600;50.816;4.416;2023-06-26T00:02:45;10.40;;;5.80;;
25752;SDS011;13600;50.816;4.416;2023-06-26T00:05:11;10.18;;;5.78;;
25752;SDS011;13600;50.816;4.416;2023-06-26T00:07:37;9.15;;;5.00;;
25752;SDS011;13600;50.816;4.416;2023-06-26T00:10:03;7.88;;;5.10;;
25752;SDS011;13600;50.816;4.416;2023-06-26T00:12:29;9.75;;;4.88;;
25752;SDS011;13600;50.816;4.416;2023-06-26T00:14:55;10.88;;;5.18;;
25752;SDS011;13600;50.816;4.416;2023-06-26T00:17:21;10.95;;;4.55;;
25752;SDS011;13600;50.816;4.416;2023-06-26T00:19:46;7.80;;;4.47;;
25752;SDS011;13600;50.816;4.416;2023-06-26T00:22:12;11.82;;;4.22;;
25752;SDS011;13600;50.816;4.416;2023-06-26T00:24:38;7.18;;;4.20;;
25752;SDS011;13600;50.816;4.416;2023-06-26T00:27:04;7.28;;;3.90;;
25752;SDS011;13600;50.816;4.416;2023-06-26T00:29:30;7.35;;;3.88;;
25752;SDS011;13600;50.816;4.416;2023-06-26T00:31:55;8.43;;;4.22;;
25752;SDS011;13600;50.816;4.416;2023-06-26T00:34:21;6.32;;;3.50;;
25752;SDS011;13600;50.816;4.416;2023-06-26T00:36:47;5.57;;;3.78;;
25752;SDS011;13600;50.816;4.416;2023-06-26T00:39:12;11.35;;;3.80;;
25752;SDS011;13600;50.816;4.416;2023-06-26T00:41:38;8.15;;;3.70;;
25752;SDS011;13600;50.816;4.416;2023-06-26T00:44:04;8.43;;;3.78;;
25752;SDS011;13600;50.816;4.416;2023-06-26T00:46:30;5.30;;;3.90;;
25752;SDS011;13600;50.816;4.416;2023-06-26T00:48:56;7.13;;;4.18;;
25752;SDS011;13600;50.816;4.416;2023-06-26T00:51:25;6.18;;;4.13;;
25752;SDS011;13600;50.816;4.416;2023-06-26T00:53:52;8.50;;;4.20;;
25752;SDS011;13600;50.816;4.416;2023-06-26T00:56:18;6.20;;;3.75;;
25752;SDS011;13600;50.816;4.416;2023-06-26T00:58:45;9.52;;;3.88;;
25752;SDS011;13600;50.816;4.416;2023-06-26T01:01:10;7.68;;;4.43;;
25752;SDS011;13600;50.816;4.416;2023-06-26T01:03:41;12.82;;;3.70;;
25752;SDS011;13600;50.816;4.416;2023-06-26T01:06:07;10.00;;;4.43;;
25752;SDS011;13600;50.816;4.416;2023-06-26T01:08:36;7.90;;;3.65;;
25752;SDS011;13600;50.816;4.416;2023-06-26T01:11:03;8.13;;;3.75;;
25752;SDS011;13600;50.816;4.416;2023-06-26T01:13:29;6.88;;;3.60;;
25752;SDS011;13600;50.816;4.416;2023-06-26T01:15:55;8.95;;;3.60;;
25752;SDS011;13600;50.816;4.416;2023-06-26T01:18:23;10.60;;;3.58;;
25752;SDS011;13600;50.816;4.416;2023-06-26T01:20:50;6.22;;;3.70;;
25752;SDS011;13600;50.816;4.416;2023-06-26T01:28:49;7.90;;;3.90;;
25752;SDS011;13600;50.816;4.416;2023-06-26T01:31:16;5.18;;;3.60;;
25752;SDS011;13600;50.816;4.416;2023-06-26T01:33:44;9.32;;;3.90;;
25752;SDS011;13600;50.816;4.416;2023-06-26T01:36:11;9.63;;;4.03;;
25752;SDS011;13600;50.816;4.416;2023-06-26T01:38:37;7.30;;;3.80;;
25752;SDS011;13600;50.816;4.416;2023-06-26T01:41:03;7.47;;;3.45;;
25752;SDS011;13600;50.816;4.416;2023-06-26T01:46:24;8.57;;;3.67;;
25752;SDS011;13600;50.816;4.416;2023-06-26T01:52:23;7.55;;;3.20;;
25752;SDS011;13600;50.816;4.416;2023-06-26T01:55:07;12.02;;;3.75;;
25752;SDS011;13600;50.816;4.416;2023-06-26T01:57:45;11.13;;;3.85;;
25752;SDS011;13600;50.816;4.416;2023-06-26T02:00:13;7.10;;;3.40;;
25752;SDS011;13600;50.816;4.416;2023-06-26T02:02:42;8.80;;;3.70;;
25752;SDS011;13600;50.816;4.416;2023-06-26T02:05:09;7.90;;;3.75;;
25752;SDS011;13600;50.816;4.416;2023-06-26T02:07:34;6.40;;;3.47;;
25752;SDS011;13600;50.816;4.416;2023-06-26T02:10:01;8.18;;;3.83;;
25752;SDS011;13600;50.816;4.416;2023-06-26T02:12:28;6.63;;;3.97;;
25752;SDS011;13600;50.816;4.416;2023-06-26T02:14:54;8.63;;;4.32;;
25752;SDS011;13600;50.816;4.416;2023-06-26T02:17:20;9.55;;;3.72;;
25752;SDS011;13600;50.816;4.416;2023-06-26T02:19:45;8.00;;;3.63;;
25752;SDS011;13600;50.816;4.416;2023-06-26T02:22:15;9.10;;;3.92;;
25752;SDS011;13600;50.816;4.416;2023-06-26T02:24:42;10.05;;;4.10;;
25752;SDS011;13600;50.816;4.416;2023-06-26T02:27:08;9.88;;;4.35;;
25752;SDS011;13600;50.816;4.416;2023-06-26T02:29:34;8.35;;;4.40;;
25752;SDS011;13600;50.816;4.416;2023-06-26T02:32:00;8.90;;;4.20;;
25752;SDS011;13600;50.816;4.416;2023-06-26T02:34:26;9.43;;;4.10;;
25752;SDS011;13600;50.816;4.416;2023-06-26T02:36:52;10.57;;;4.05;;
25752;SDS011;13600;50.816;4.416;2023-06-26T02:39:21;8.90;;;4.07;;
25752;SDS011;13600;50.816;4.416;2023-06-26T02:41:47;9.70;;;4.22;;
25752;SDS011;13600;50.816;4.416;2023-06-26T02:44:13;8.40;;;3.80;;
25752;SDS011;13600;50.816;4.416;2023-06-26T02:46:39;10.00;;;4.63;;
25752;SDS011;13600;50.816;4.416;2023-06-26T02:49:05;13.93;;;4.18;;
25752;SDS011;13600;50.816;4.416;2023-06-26T02:51:34;9.45;;;4.00;;
25752;SDS011;13600;50.816;4.416;2023-06-26T02:54:01;11.68;;;4.43;;
25752;SDS011;13600;50.816;4.416;2023-06-26T02:56:27;11.68;;;4.13;;
25752;SDS011;13600;50.816;4.416;2023-06-26T02:58:54;11.90;;;4.95;;
25752;SDS011;13600;50.816;4.416;2023-06-26T03:01:20;11.18;;;4.25;;
25752;SDS011;13600;50.816;4.416;2023-06-26T03:03:46;10.40;;;4.13;;
25752;SDS011;13600;50.816;4.416;2023-06-26T03:06:12;11.10;;;4.13;;
25752;SDS011;13600;50.816;4.416;2023-06-26T03:08:38;13.88;;;4.32;;
25752;SDS011;13600;50.816;4.416;2023-06-26T03:11:06;11.88;;;4.32;;
25752;SDS011;13600;50.816;4.416;2023-06-26T03:13:35;11.98;;;4.15;;
25752;SDS011;13600;50.816;4.416;2023-06-26T03:16:02;10.07;;;3.97;;
25752;SDS011;13600;50.816;4.416;2023-06-26T03:18:28;13.95;;;4.78;;
25752;SDS011;13600;50.816;4.416;2023-06-26T03:20:57;14.63;;;4.93;;
25752;SDS011;13600;50.816;4.416;2023-06-26T03:23:23;11.38;;;4.53;;
25752;SDS011;13600;50.816;4.416;2023-06-26T03:25:49;14.23;;;4.78;;
25752;SDS011;13600;50.816;4.416;2023-06-26T03:28:15;15.07;;;4.80;;
25752;SDS011;13600;50.816;4.416;2023-06-26T03:30:41;15.27;;;5.07;;
25752;SDS011;13600;50.816;4.416;2023-06-26T03:33:07;13.23;;;5.20;;
25752;SDS011;13600;50.816;4.416;2023-06-26T03:35:33;14.75;;;4.85;;
25752;SDS011;13600;50.816;4.416;2023-06-26T03:37:59;16.80;;;5.05;;
25752;SDS011;13600;50.816;4.416;2023-06-26T03:40:25;18.80;;;5.40;;
25752;SDS011;13600;50.816;4.416;2023-06-26T03:42:52;13.80;;;4.70;;
25752;SDS011;13600;50.816;4.416;2023-06-26T03:45:17;13.00;;;5.00;;
25752;SDS011;13600;50.816;4.416;2023-06-26T03:47:44;14.48;;;4.70;;
25752;SDS011;13600;50.816;4.416;2023-06-26T03:50:12;20.27;;;5.30;;
25752;SDS011;13600;50.816;4.416;2023-06-26T03:52:37;15.85;;;4.57;;
25752;SDS011;13600;50.816;4.416;2023-06-26T03:55:03;16.05;;;4.88;;
25752;SDS011;13600;50.816;4.416;2023-06-26T03:57:29;14.07;;;4.95;;
25752;SDS011;13600;50.816;4.416;2023-06-26T03:59:55;15.00;;;4.75;;
25752;SDS011;13600;50.816;4.416;2023-06-26T04:02:20;17.73;;;5.28;;
25752;SDS011;13600;50.816;4.416;2023-06-26T04:04:46;15.65;;;4.75;;
25752;SDS011;13600;50.816;4.416;2023-06-26T04:07:11;19.48;;;5.47;;
25752;SDS011;13600;50.816;4.416;2023-06-26T04:09:37;17.63;;;4.60;;
25752;SDS011;13600;50.816;4.416;2023-06-26T04:12:03;18.42;;;4.88;;
25752;SDS011;13600;50.816;4.416;2023-06-26T04:14:29;16.88;;;4.78;;
25752;SDS011;13600;50.816;4.416;2023-06-26T04:16:54;18.45;;;5.25;;
25752;SDS011;13600;50.816;4.416;2023-06-26T04:19:20;16.73;;;5.10;;
25752;SDS011;13600;50.816;4.416;2023-06-26T04:21:46;18.88;;;5.10;;
25752;SDS011;13600;50.816;4.416;2023-06-26T04:24:11;19.42;;;4.95;;
25752;SDS011;13600;50.816;4.416;2023-06-26T04:26:37;15.05;;;4.65;;
25752;SDS011;13600;50.816;4.416;2023-06-26T04:29:06;14.50;;;4.80;;
25752;SDS011;13600;50.816;4.416;2023-06-26T04:31:32;14.25;;;4.65;;
25752;SDS011;13600;50.816;4.416;2023-06-26T04:33:57;14.77;;;4.75;;
25752;SDS011;13600;50.816;4.416;2023-06-26T04:36:24;16.05;;;4.65;;
25752;SDS011;13600;50.816;4.416;2023-06-26T04:38:53;19.80;;;4.97;;
25752;SDS011;13600;50.816;4.416;2023-06-26T04:41:23;20.10;;;4.75;;
25752;SDS011;13600;50.816;4.416;2023-06-26T04:43:51;15.40;;;5.07;;
25752;SDS011;13600;50.816;4.416;2023-06-26T04:46:16;19.50;;;5.35;;
25752;SDS011;13600;50.816;4.416;2023-06-26T04:48:42;18.05;;;4.90;;
25752;SDS011;13600;50.816;4.416;2023-06-26T04:51:10;17.35;;;5.22;;
25752;SDS011;13600;50.816;4.416;2023-06-26T04:53:36;18.27;;;4.85;;
25752;SDS011;13600;50.816;4.416;2023-06-26T04:56:02;18.58;;;4.10;;
25752;SDS011;13600;50.816;4.416;2023-06-26T04:58:28;16.25;;;4.50;;
25752;SDS011;13600;50.816;4.416;2023-06-26T05:00:53;18.77;;;4.55;;
25752;SDS011;13600;50.816;4.416;2023-06-26T05:03:19;15.13;;;3.92;;
25752;SDS011;13600;50.816;4.416;2023-06-26T05:05:46;24.10;;;4.80;;
25752;SDS011;13600;50.816;4.416;2023-06-26T05:08:21;17.17;;;4.20;;
25752;SDS011;13600;50.816;4.416;2023-06-26T05:10:47;13.95;;;4.43;;
25752;SDS011;13600;50.816;4.416;2023-06-26T05:13:13;18.30;;;4.65;;
25752;SDS011;13600;50.816;4.416;2023-06-26T05:15:44;18.75;;;4.45;;
25752;SDS011;13600;50.816;4.416;2023-06-26T05:18:10;14.45;;;4.45;;
25752;SDS011;13600;50.816;4.416;2023-06-26T05:20:36;14.88;;;4.35;;
25752;SDS011;13600;50.816;4.416;2023-06-26T05:23:02;18.30;;;3.88;;
25752;SDS011;13600;50.816;4.416;2023-06-26T05:25:29;15.52;;;4.07;;
25752;SDS011;13600;50.816;4.416;2023-06-26T05:27:56;23.83;;;4.90;;
25752;SDS011;13600;50.816;4.416;2023-06-26T05:30:22;17.70;;;4.32;;
25752;SDS011;13600;50.816;4.416;2023-06-26T05:32:50;12.93;;;3.75;;
25752;SDS011;13600;50.816;4.416;2023-06-26T05:35:17;16.00;;;4.00;;
25752;SDS011;13600;50.816;4.416;2023-06-26T05:37:45;21.65;;;4.03;;
25752;SDS011;13600;50.816;4.416;2023-06-26T05:40:13;15.48;;;4.03;;
25752;SDS011;13600;50.816;4.416;2023-06-26T05:42:40;19.48;;;4.10;;
25752;SDS011;13600;50.816;4.416;2023-06-26T05:45:06;15.50;;;4.15;;
25752;SDS011;13600;50.816;4.416;2023-06-26T05:47:32;18.17;;;3.90;;
25752;SDS011;13600;50.816;4.416;2023-06-26T05:49:58;16.45;;;4.07;;
25752;SDS011;13600;50.816;4.416;2023-06-26T05:52:24;13.90;;;3.67;;
25752;SDS011;13600;50.816;4.416;2023-06-26T05:54:50;15.95;;;3.42;;
25752;SDS011;13600;50.816;4.416;2023-06-26T05:57:16;11.52;;;3.08;;
25752;SDS011;13600;50.816;4.416;2023-06-26T05:59:43;20.33;;;3.88;;
25752;SDS011;13600;50.816;4.416;2023-06-26T06:02:08;20.58;;;3.72;;
25752;SDS011;13600;50.816;4.416;2023-06-26T06:04:34;12.80;;;2.90;;
25752;SDS011;13600;50.816;4.416;2023-06-26T06:07:03;13.52;;;3.00;;
25752;SDS011;13600;50.816;4.416;2023-06-26T06:09:29;11.27;;;2.38;;
25752;SDS011;13600;50.816;4.416;2023-06-26T06:11:54;12.95;;;3.17;;
25752;SDS011;13600;50.816;4.416;2023-06-26T06:14:20;12.18;;;2.53;;
25752;SDS011;13600;50.816;4.416;2023-06-26T06:16:46;14.95;;;3.13;;
25752;SDS011;13600;50.816;4.416;2023-06-26T06:19:11;17.08;;;2.75;;
25752;SDS011;13600;50.816;4.416;2023-06-26T06:21:38;11.93;;;2.35;;
25752;SDS011;13600;50.816;4.416;2023-06-26T06:24:04;10.13;;;2.88;;
25752;SDS011;13600;50.816;4.416;2023-06-26T06:26:32;13.77;;;3.13;;
25752;SDS011;13600;50.816;4.416;2023-06-26T06:28:57;8.82;;;2.15;;
25752;SDS011;13600;50.816;4.416;2023-06-26T06:31:23;13.95;;;2.83;;
25752;SDS011;13600;50.816;4.416;2023-06-26T06:33:49;12.55;;;2.38;;
25752;SDS011;13600;50.816;4.416;2023-06-26T06:36:15;12.05;;;2.35;;
25752;SDS011;13600;50.816;4.416;2023-06-26T06:38:43;14.30;;;2.33;;
25752;SDS011;13600;50.816;4.416;2023-06-26T06:41:09;13.18;;;3.05;;
25752;SDS011;13600;50.816;4.416;2023-06-26T06:43:35;9.88;;;2.88;;
25752;SDS011;13600;50.816;4.416;2023-06-26T06:46:01;11.52;;;2.50;;
25752;SDS011;13600;50.816;4.416;2023-06-26T06:48:27;11.23;;;2.20;;
25752;SDS011;13600;50.816;4.416;2023-06-26T06:50:53;7.93;;;1.85;;
25752;SDS011;13600;50.816;4.416;2023-06-26T06:53:18;8.32;;;2.38;;
25752;SDS011;13600;50.816;4.416;2023-06-26T06:55:45;10.38;;;2.30;;
25752;SDS011;13600;50.816;4.416;2023-06-26T06:58:11;11.93;;;2.30;;
25752;SDS011;13600;50.816;4.416;2023-06-26T07:00:37;13.65;;;2.40;;
25752;SDS011;13600;50.816;4.416;2023-06-26T07:03:03;9.30;;;2.20;;
25752;SDS011;13600;50.816;4.416;2023-06-26T07:05:29;6.55;;;1.60;;
25752;SDS011;13600;50.816;4.416;2023-06-26T07:07:55;12.02;;;2.30;;
25752;SDS011;13600;50.816;4.416;2023-06-26T07:10:20;20.83;;;2.45;;
25752;SDS011;13600;50.816;4.416;2023-06-26T07:12:46;7.38;;;1.67;;
25752;SDS011;13600;50.816;4.416;2023-06-26T07:15:12;14.85;;;2.50;;
25752;SDS011;13600;50.816;4.416;2023-06-26T07:17:38;7.72;;;2.08;;
25752;SDS011;13600;50.816;4.416;2023-06-26T07:20:04;12.70;;;1.98;;
25752;SDS011;13600;50.816;4.416;2023-06-26T07:22:35;9.25;;;2.00;;
25752;SDS011;13600;50.816;4.416;2023-06-26T07:25:01;8.30;;;1.92;;
25752;SDS011;13600;50.816;4.416;2023-06-26T07:27:29;9.95;;;1.90;;
25752;SDS011;13600;50.816;4.416;2023-06-26T07:29:54;8.18;;;1.92;;
25752;SDS011;13600;50.816;4.416;2023-06-26T07:32:20;12.20;;;2.17;;
25752;SDS011;13600;50.816;4.416;2023-06-26T07:34:46;8.38;;;2.05;;
25752;SDS011;13600;50.816;4.416;2023-06-26T07:37:11;6.65;;;1.80;;
25752;SDS011;13600;50.816;4.416;2023-06-26T07:39:37;8.48;;;1.77;;
25752;SDS011;13600;50.816;4.416;2023-06-26T07:42:02;12.88;;;2.35;;
25752;SDS011;13600;50.816;4.416;2023-06-26T07:44:28;9.68;;;1.83;;
25752;SDS011;13600;50.816;4.416;2023-06-26T07:46:54;10.13;;;1.80;;
25752;SDS011;13600;50.816;4.416;2023-06-26T07:49:20;10.23;;;2.25;;
25752;SDS011;13600;50.816;4.416;2023-06-26T07:51:45;5.95;;;1.75;;
25752;SDS011;13600;50.816;4.416;2023-06-26T07:54:11;7.30;;;1.77;;
25752;SDS011;13600;50.816;4.416;2023-06-26T07:59:22;13.52;;;2.15;;
25752;SDS011;13600;50.816;4.416;2023-06-26T08:01:49;5.53;;;1.85;;
25752;SDS011;13600;50.816;4.416;2023-06-26T08:04:15;6.43;;;1.80;;
25752;SDS011;13600;50.816;4.416;2023-06-26T08:06:42;7.10;;;1.55;;
25752;SDS011;13600;50.816;4.416;2023-06-26T08:09:08;6.53;;;1.83;;
25752;SDS011;13600;50.816;4.416;2023-06-26T08:11:34;12.98;;;1.80;;
25752;SDS011;13600;50.816;4.416;2023-06-26T08:14:02;7.38;;;1.92;;
25752;SDS011;13600;50.816;4.416;2023-06-26T08:16:27;10.10;;;1.75;;
25752;SDS011;13600;50.816;4.416;2023-06-26T08:18:53;4.95;;;1.35;;
25752;SDS011;13600;50.816;4.416;2023-06-26T08:21:19;7.38;;;1.60;;
25752;SDS011;13600;50.816;4.416;2023-06-26T08:23:44;8.20;;;1.80;;
25752;SDS011;13600;50.816;4.416;2023-06-26T08:26:10;6.68;;;1.88;;
25752;SDS011;13600;50.816;4.416;2023-06-26T08:28:36;12.18;;;1.60;;
25752;SDS011;13600;50.816;4.416;2023-06-26T08:31:01;8.57;;;1.63;;
25752;SDS011;13600;50.816;4.416;2023-06-26T08:33:27;6.57;;;1.55;;
25752;SDS011;13600;50.816;4.416;2023-06-26T08:35:52;5.68;;;1.38;;
25752;SDS011;13600;50.816;4.416;2023-06-26T08:38:18;6.40;;;1.40;;
25752;SDS011;13600;50.816;4.416;2023-06-26T08:40:46;6.55;;;1.42;;
25752;SDS011;13600;50.816;4.416;2023-06-26T08:43:12;8.45;;;1.40;;
25752;SDS011;13600;50.816;4.416;2023-06-26T08:45:38;3.97;;;1.45;;
25752;SDS011;13600;50.816;4.416;2023-06-26T08:48:04;6.15;;;1.30;;
25752;SDS011;13600;50.816;4.416;2023-06-26T08:50:34;6.57;;;1.13;;
25752;SDS011;13600;50.816;4.416;2023-06-26T08:53:03;4.35;;;1.30;;
25752;SDS011;13600;50.816;4.416;2023-06-26T08:55:44;5.78;;;1.40;;
25752;SDS011;13600;50.816;4.416;2023-06-26T08:58:11;5.28;;;1.33;;
25752;SDS011;13600;50.816;4.416;2023-06-26T09:00:38;5.70;;;1.30;;
25752;SDS011;13600;50.816;4.416;2023-06-26T09:03:04;10.48;;;1.67;;
25752;SDS011;13600;50.816;4.416;2023-06-26T09:05:30;6.60;;;1.90;;
25752;SDS011;13600;50.816;4.416;2023-06-26T09:07:57;9.13;;;1.55;;
25752;SDS011;13600;50.816;4.416;2023-06-26T09:10:23;8.10;;;1.50;;
25752;SDS011;13600;50.816;4.416;2023-06-26T09:12:49;5.72;;;1.52;;
25752;SDS011;13600;50.816;4.416;2023-06-26T09:15:15;4.72;;;1.45;;
25752;SDS011;13600;50.816;4.416;2023-06-26T09:17:45;5.97;;;1.30;;
25752;SDS011;13600;50.816;4.416;2023-06-26T09:20:11;4.95;;;1.10;;
25752;SDS011;13600;50.816;4.416;2023-06-26T09:22:40;6.10;;;1.30;;
25752;SDS011;13600;50.816;4.416;2023-06-26T09:25:07;5.43;;;1.10;;
25752;SDS011;13600;50.816;4.416;2023-06-26T09:27:34;6.03;;;1.20;;
25752;SDS011;13600;50.816;4.416;2023-06-26T09:30:01;4.82;;;1.10;;
25752;SDS011;13600;50.816;4.416;2023-06-26T09:32:33;5.88;;;1.20;;
25752;SDS011;13600;50.816;4.416;2023-06-26T09:35:01;5.07;;;1.20;;
25752;SDS011;13600;50.816;4.416;2023-06-26T09:37:28;5.50;;;1.40;;
25752;SDS011;13600;50.816;4.416;2023-06-26T09:39:54;7.65;;;1.48;;
25752;SDS011;13600;50.816;4.416;2023-06-26T09:42:19;7.70;;;1.50;;
25752;SDS011;13600;50.816;4.416;2023-06-26T09:44:49;8.32;;;1.42;;
25752;SDS011;13600;50.816;4.416;2023-06-26T09:47:16;3.78;;;1.30;;
25752;SDS011;13600;50.816;4.416;2023-06-26T09:49:43;5.47;;;1.52;;
25752;SDS011;13600;50.816;4.416;2023-06-26T09:52:09;6.75;;;1.45;;
25752;SDS011;13600;50.816;4.416;2023-06-26T09:54:35;4.40;;;1.50;;
25752;SDS011;13600;50.816;4.416;2023-06-26T09:57:08;5.78;;;1.48;;
25752;SDS011;13600;50.816;4.416;2023-06-26T09:59:34;7.20;;;1.53;;
25752;SDS011;13600;50.816;4.416;2023-06-26T10:02:00;3.78;;;1.45;;
25752;SDS011;13600;50.816;4.416;2023-06-26T10:04:26;7.40;;;1.30;;
25752;SDS011;13600;50.816;4.416;2023-06-26T10:06:52;3.22;;;1.40;;
25752;SDS011;13600;50.816;4.416;2023-06-26T10:09:22;3.72;;;1.10;;
25752;SDS011;13600;50.816;4.416;2023-06-26T10:11:50;5.95;;;1.48;;
25752;SDS011;13600;50.816;4.416;2023-06-26T10:14:27;5.15;;;1.00;;
25752;SDS011;13600;50.816;4.416;2023-06-26T10:17:00;4.75;;;1.30;;
25752;SDS011;13600;50.816;4.416;2023-06-26T10:19:28;4.35;;;1.30;;
25752;SDS011;13600;50.816;4.416;2023-06-26T10:21:56;7.35;;;1.25;;
25752;SDS011;13600;50.816;4.416;2023-06-26T10:24:25;4.40;;;1.40;;
25752;SDS011;13600;50.816;4.416;2023-06-26T10:26:56;4.15;;;1.38;;
25752;SDS011;13600;50.816;4.416;2023-06-26T10:29:24;4.63;;;1.30;;
25752;SDS011;13600;50.816;4.416;2023-06-26T10:31:52;4.93;;;1.45;;
25752;SDS011;13600;50.816;4.416;2023-06-26T10:34:23;4.75;;;1.30;;
25752;SDS011;13600;50.816;4.416;2023-06-26T10:36:58;5.40;;;1.30;;
25752;SDS011;13600;50.816;4.416;2023-06-26T10:39:36;4.50;;;1.20;;
25752;SDS011;13600;50.816;4.416;2023-06-26T10:42:11;2.63;;;1.25;;
25752;SDS011;13600;50.816;4.416;2023-06-26T10:44:40;5.53;;;1.20;;
25752;SDS011;13600;50.816;4.416;2023-06-26T10:47:08;5.68;;;1.55;;
25752;SDS011;13600;50.816;4.416;2023-06-26T10:49:35;4.18;;;1.50;;
25752;SDS011;13600;50.816;4.416;2023-06-26T10:52:02;5.82;;;1.60;;
25752;SDS011;13600;50.816;4.416;2023-06-26T10:54:30;6.20;;;1.48;;
25752;SDS011;13600;50.816;4.416;2023-06-26T10:56:57;7.10;;;1.88;;
25752;SDS011;13600;50.816;4.416;2023-06-26T10:59:26;2.92;;;1.30;;
25752;SDS011;13600;50.816;4.416;2023-06-26T11:04:42;6.72;;;1.60;;
25752;SDS011;13600;50.816;4.416;2023-06-26T11:09:53;5.65;;;1.52;;
25752;SDS011;13600;50.816;4.416;2023-06-26T11:15:07;4.63;;;1.15;;
25752;SDS011;13600;50.816;4.416;2023-06-26T11:17:34;5.30;;;1.20;;
25752;SDS011;13600;50.816;4.416;2023-06-26T11:20:05;6.90;;;1.50;;
25752;SDS011;13600;50.816;4.416;2023-06-26T11:22:33;7.35;;;1.58;;
25752;SDS011;13600;50.816;4.416;2023-06-26T11:25:01;8.50;;;1.50;;
25752;SDS011;13600;50.816;4.416;2023-06-26T11:27:32;6.65;;;1.27;;
25752;SDS011;13600;50.816;4.416;2023-06-26T11:30:11;5.40;;;1.30;;
25752;SDS011;13600;50.816;4.416;2023-06-26T11:32:47;4.22;;;1.35;;
25752;SDS011;13600;50.816;4.416;2023-06-26T11:35:13;4.50;;;1.23;;
25752;SDS011;13600;50.816;4.416;2023-06-26T11:37:55;5.85;;;1.40;;
25752;SDS011;13600;50.816;4.416;2023-06-26T11:40:22;5.15;;;1.52;;
25752;SDS011;13600;50.816;4.416;2023-06-26T11:42:52;3.10;;;1.20;;
25752;SDS011;13600;50.816;4.416;2023-06-26T11:45:19;5.50;;;1.38;;
25752;SDS011;13600;50.816;4.416;2023-06-26T11:47:45;6.60;;;1.33;;
25752;SDS011;13600;50.816;4.416;2023-06-26T11:50:17;6.18;;;1.52;;
25752;SDS011;13600;50.816;4.416;2023-06-26T11:52:44;3.92;;;1.40;;
25752;SDS011;13600;50.816;4.416;2023-06-26T11:55:11;5.45;;;1.38;;
25752;SDS011;13600;50.816;4.416;2023-06-26T11:57:37;5.93;;;1.40;;
25752;SDS011;13600;50.816;4.416;2023-06-26T12:00:14;4.05;;;1.27;;
25752;SDS011;13600;50.816;4.416;2023-06-26T12:02:42;4.18;;;1.20;;
25752;SDS011;13600;50.816;4.416;2023-06-26T12:05:09;7.03;;;1.70;;
25752;SDS011;13600;50.816;4.416;2023-06-26T12:07:36;5.40;;;1.45;;
25752;SDS011;13600;50.816;4.416;2023-06-26T12:10:02;4.82;;;1.52;;
25752;SDS011;13600;50.816;4.416;2023-06-26T12:12:30;8.48;;;1.42;;
25752;SDS011;13600;50.816;4.416;2023-06-26T12:14:57;7.75;;;1.40;;
25752;SDS011;13600;50.816;4.416;2023-06-26T12:17:25;5.55;;;1.30;;
25752;SDS011;13600;50.816;4.416;2023-06-26T12:19:50;6.97;;;1.55;;
25752;SDS011;13600;50.816;4.416;2023-06-26T12:22:17;5.45;;;1.20;;
25752;SDS011;13600;50.816;4.416;2023-06-26T12:24:43;5.22;;;1.65;;
25752;SDS011;13600;50.816;4.416;2023-06-26T12:27:11;4.85;;;1.50;;
25752;SDS011;13600;50.816;4.416;2023-06-26T12:29:38;4.47;;;1.30;;
25752;SDS011;13600;50.816;4.416;2023-06-26T12:32:10;4.47;;;1.48;;
25752;SDS011;13600;50.816;4.416;2023-06-26T12:34:36;5.28;;;1.30;;
25752;SDS011;13600;50.816;4.416;2023-06-26T12:37:11;4.60;;;1.13;;
25752;SDS011;13600;50.816;4.416;2023-06-26T12:39:45;4.93;;;1.27;;
25752;SDS011;13600;50.816;4.416;2023-06-26T12:42:19;3.40;;;1.20;;
25752;SDS011;13600;50.816;4.416;2023-06-26T12:44:46;6.05;;;1.52;;
25752;SDS011;13600;50.816;4.416;2023-06-26T12:47:12;3.60;;;1.30;;
25752;SDS011;13600;50.816;4.416;2023-06-26T12:49:40;7.72;;;1.45;;
25752;SDS011;13600;50.816;4.416;2023-06-26T12:52:08;6.80;;;1.20;;
25752;SDS011;13600;50.816;4.416;2023-06-26T12:54:36;5.50;;;1.30;;
25752;SDS011;13600;50.816;4.416;2023-06-26T12:57:03;4.68;;;1.15;;
25752;SDS011;13600;50.816;4.416;2023-06-26T12:59:30;7.68;;;1.52;;
25752;SDS011;13600;50.816;4.416;2023-06-26T13:01:56;3.88;;;1.40;;
25752;SDS011;13600;50.816;4.416;2023-06-26T13:04:22;3.50;;;1.10;;
25752;SDS011;13600;50.816;4.416;2023-06-26T13:06:48;4.68;;;1.30;;
25752;SDS011;13600;50.816;4.416;2023-06-26T13:09:15;5.63;;;1.25;;
25752;SDS011;13600;50.816;4.416;2023-06-26T13:11:41;3.47;;;1.20;;
25752;SDS011;13600;50.816;4.416;2023-06-26T13:14:06;5.72;;;1.38;;
25752;SDS011;13600;50.816;4.416;2023-06-26T13:16:32;3.08;;;1.25;;
25752;SDS011;13600;50.816;4.416;2023-06-26T13:18:58;4.10;;;1.30;;
25752;SDS011;13600;50.816;4.416;2023-06-26T13:21:25;4.18;;;1.20;;
25752;SDS011;13600;50.816;4.416;2023-06-26T13:23:50;5.68;;;1.50;;
25752;SDS011;13600;50.816;4.416;2023-06-26T13:26:16;4.38;;;1.52;;
25752;SDS011;13600;50.816;4.416;2023-06-26T13:28:42;2.97;;;1.20;;
25752;SDS011;13600;50.816;4.416;2023-06-26T13:31:07;10.35;;;1.50;;
25752;SDS011;13600;50.816;4.416;2023-06-26T13:33:33;8.93;;;1.50;;
25752;SDS011;13600;50.816;4.416;2023-06-26T13:35:58;5.18;;;1.20;;
25752;SDS011;13600;50.816;4.416;2023-06-26T13:38:24;7.53;;;1.63;;
25752;SDS011;13600;50.816;4.416;2023-06-26T13:40:53;3.58;;;1.30;;
25752;SDS011;13600;50.816;4.416;2023-06-26T13:43:23;5.38;;;1.33;;
25752;SDS011;13600;50.816;4.416;2023-06-26T13:45:48;6.43;;;1.33;;
25752;SDS011;13600;50.816;4.416;2023-06-26T13:48:14;7.75;;;1.40;;
25752;SDS011;13600;50.816;4.416;2023-06-26T13:50:40;4.43;;;1.40;;
25752;SDS011;13600;50.816;4.416;2023-06-26T13:53:06;4.43;;;1.38;;
25752;SDS011;13600;50.816;4.416;2023-06-26T13:55:32;6.65;;;1.38;;
25752;SDS011;13600;50.816;4.416;2023-06-26T13:57:58;6.45;;;1.45;;
25752;SDS011;13600;50.816;4.416;2023-06-26T14:00:24;6.95;;;1.40;;
25752;SDS011;13600;50.816;4.416;2023-06-26T14:02:50;6.63;;;1.33;;
25752;SDS011;13600;50.816;4.416;2023-06-26T14:05:16;8.52;;;1.40;;
25752;SDS011;13600;50.816;4.416;2023-06-26T14:07:44;4.13;;;1.27;;
25752;SDS011;13600;50.816;4.416;2023-06-26T14:10:10;8.10;;;1.30;;
25752;SDS011;13600;50.816;4.416;2023-06-26T14:12:35;4.63;;;1.20;;
25752;SDS011;13600;50.816;4.416;2023-06-26T14:15:01;6.13;;;1.50;;
25752;SDS011;13600;50.816;4.416;2023-06-26T14:17:28;4.93;;;1.15;;
25752;SDS011;13600;50.816;4.416;2023-06-26T14:19:54;3.33;;;1.02;;
25752;SDS011;13600;50.816;4.416;2023-06-26T14:22:20;9.40;;;1.35;;
25752;SDS011;13600;50.816;4.416;2023-06-26T14:24:46;4.70;;;1.40;;
25752;SDS011;13600;50.816;4.416;2023-06-26T14:27:11;6.15;;;1.40;;
25752;SDS011;13600;50.816;4.416;2023-06-26T14:29:37;7.20;;;1.33;;
25752;SDS011;13600;50.816;4.416;2023-06-26T14:32:04;6.32;;;1.20;;
25752;SDS011;13600;50.816;4.416;2023-06-26T14:34:30;4.55;;;1.20;;
25752;SDS011;13600;50.816;4.416;2023-06-26T14:36:56;5.78;;;0.93;;
25752;SDS011;13600;50.816;4.416;2023-06-26T14:39:21;3.63;;;1.02;;
25752;SDS011;13600;50.816;4.416;2023-06-26T14:41:47;6.75;;;1.30;;
25752;SDS011;13600;50.816;4.416;2023-06-26T14:44:13;4.25;;;1.20;;
25752;SDS011;13600;50.816;4.416;2023-06-26T14:46:39;7.53;;;1.60;;
25752;SDS011;13600;50.816;4.416;2023-06-26T14:49:05;5.63;;;1.40;;
25752;SDS011;13600;50.816;4.416;2023-06-26T14:51:31;4.85;;;1.17;;
25752;SDS011;13600;50.816;4.416;2023-06-26T14:53:57;4.70;;;1.10;;
25752;SDS011;13600;50.816;4.416;2023-06-26T14:56:22;5.03;;;1.30;;
25752;SDS011;13600;50.816;4.416;2023-06-26T14:58:49;6.30;;;1.45;;
25752;SDS011;13600;50.816;4.416;2023-06-26T15:01:16;5.63;;;1.50;;
25752;SDS011;13600;50.816;4.416;2023-06-26T15:03:44;4.15;;;1.13;;